AAL2 KSAN-KSJC
Flight info
| Callsign | AAL2 |
|---|---|
| Flight time | 1h 2m |
| Altitude | 36000 |
| Route | PADRZ2 IKAYE TESEA SCTRR TROXX SILCN6 |
| Aircraft | A320/M-SDE3FGHIRWY/LB1 |
Departure
| Time | 2026-04-25 15:47 |
|---|---|
| Airport | San Diego International Airport (KSAN) |
Arrival
| Time | 2026-04-25 16:50 |
|---|---|
| Airport | Norman Y. Mineta San Jose International Airport (KSJC) |
| Time | Latitude | Longitude | Altitude | Speed | Heading |
|---|---|---|---|---|---|
| 2026-04-25 15:23 | 32.73375 | -117.20203 | 21 ft | 0 kts | 141° |
| 2026-04-25 15:32 | 32.73375 | -117.20204 | 21 ft | 1 kts | 141° |
| 2026-04-25 15:32 | 32.73394 | -117.20222 | 25 ft | 4 kts | 140° |
| 2026-04-25 15:32 | 32.73414 | -117.20243 | 24 ft | 4 kts | 128° |
| 2026-04-25 15:33 | 32.73423 | -117.20269 | 22 ft | 0 kts | 17° |
| 2026-04-25 15:35 | 32.73424 | -117.20269 | 22 ft | 1 kts | 17° |
| 2026-04-25 15:35 | 32.73446 | -117.20260 | 21 ft | 6 kts | 19° |
| 2026-04-25 15:36 | 32.73542 | -117.20192 | 23 ft | 10 kts | 68° |
| 2026-04-25 15:36 | 32.73530 | -117.20107 | 25 ft | 12 kts | 105° |
| 2026-04-25 15:36 | 32.73505 | -117.20004 | 23 ft | 14 kts | 105° |
| 2026-04-25 15:37 | 32.73477 | -117.19886 | 24 ft | 16 kts | 105° |
| 2026-04-25 15:37 | 32.73445 | -117.19752 | 25 ft | 18 kts | 106° |
| 2026-04-25 15:37 | 32.73406 | -117.19595 | 23 ft | 21 kts | 106° |
| 2026-04-25 15:37 | 32.73370 | -117.19443 | 24 ft | 20 kts | 105° |
| 2026-04-25 15:38 | 32.73327 | -117.19271 | 21 ft | 20 kts | 106° |
| 2026-04-25 15:38 | 32.73292 | -117.19123 | 21 ft | 19 kts | 106° |
| 2026-04-25 15:38 | 32.73254 | -117.18964 | 23 ft | 21 kts | 106° |
| 2026-04-25 15:38 | 32.73211 | -117.18788 | 25 ft | 23 kts | 106° |
| 2026-04-25 15:39 | 32.73171 | -117.18626 | 29 ft | 20 kts | 107° |
| 2026-04-25 15:39 | 32.73129 | -117.18450 | 26 ft | 23 kts | 106° |
| 2026-04-25 15:39 | 32.73083 | -117.18260 | 27 ft | 20 kts | 106° |
| 2026-04-25 15:39 | 32.73055 | -117.18147 | 24 ft | 16 kts | 106° |
| 2026-04-25 15:40 | 32.73022 | -117.18013 | 22 ft | 16 kts | 105° |
| 2026-04-25 15:40 | 32.73013 | -117.17977 | 23 ft | 13 kts | 106° |
| 2026-04-25 15:40 | 32.72944 | -117.17835 | 20 ft | 10 kts | 145° |
| 2026-04-25 15:40 | 32.72914 | -117.17776 | 20 ft | 10 kts | 76° |
| 2026-04-25 15:41 | 32.72934 | -117.17712 | 21 ft | 6 kts | 68° |
| 2026-04-25 15:41 | 32.72945 | -117.17681 | 20 ft | 0 kts | 65° |
| 2026-04-25 15:46 | 32.72946 | -117.17680 | 20 ft | 1 kts | 65° |
| 2026-04-25 15:46 | 32.72969 | -117.17619 | 22 ft | 14 kts | 66° |
| 2026-04-25 15:46 | 32.73030 | -117.17597 | 23 ft | 12 kts | 310° |
| 2026-04-25 15:47 | 32.73067 | -117.17775 | 20 ft | 49 kts | 285° |
| 2026-04-25 15:47 | 32.73227 | -117.18434 | 23 ft | 113 kts | 286° |
| 2026-04-25 15:47 | 32.73494 | -117.19518 | 86 ft | 155 kts | 287° |
| 2026-04-25 15:47 | 32.73832 | -117.20745 | 705 ft | 157 kts | 289° |
| 2026-04-25 15:48 | 32.74338 | -117.21891 | 1449 ft | 157 kts | 299° |
| 2026-04-25 15:48 | 32.74947 | -117.22994 | 2027 ft | 167 kts | 301° |
| 2026-04-25 15:48 | 32.75637 | -117.24215 | 2354 ft | 189 kts | 301° |
| 2026-04-25 15:48 | 32.76417 | -117.25595 | 2672 ft | 214 kts | 301° |
| 2026-04-25 15:49 | 32.77282 | -117.27133 | 3133 ft | 239 kts | 302° |
| 2026-04-25 15:49 | 32.78246 | -117.28849 | 3852 ft | 256 kts | 302° |
| 2026-04-25 15:49 | 32.79247 | -117.30632 | 4832 ft | 262 kts | 302° |
| 2026-04-25 15:49 | 32.80284 | -117.32435 | 5810 ft | 265 kts | 304° |
| 2026-04-25 15:50 | 32.81392 | -117.34196 | 6792 ft | 267 kts | 306° |
| 2026-04-25 15:50 | 32.82539 | -117.35949 | 7723 ft | 270 kts | 305° |
| 2026-04-25 15:50 | 32.83702 | -117.37710 | 8665 ft | 272 kts | 304° |
| 2026-04-25 15:50 | 32.84872 | -117.39490 | 9594 ft | 274 kts | 303° |
| 2026-04-25 15:51 | 32.86052 | -117.41300 | 10335 ft | 283 kts | 302° |
| 2026-04-25 15:51 | 32.86884 | -117.42592 | 10529 ft | 299 kts | 302° |
| 2026-04-25 15:51 | 32.88603 | -117.45274 | 11245 ft | 313 kts | 302° |
| 2026-04-25 15:51 | 32.89935 | -117.47348 | 11972 ft | 318 kts | 302° |
| 2026-04-25 15:52 | 32.91290 | -117.49452 | 12718 ft | 322 kts | 302° |
| 2026-04-25 15:52 | 32.92658 | -117.51576 | 13480 ft | 325 kts | 302° |
| 2026-04-25 15:52 | 32.94043 | -117.53727 | 14185 ft | 329 kts | 302° |
| 2026-04-25 15:52 | 32.95443 | -117.55901 | 14843 ft | 332 kts | 302° |
| 2026-04-25 15:53 | 32.96856 | -117.58099 | 15518 ft | 335 kts | 302° |
| 2026-04-25 15:53 | 32.98280 | -117.60314 | 16176 ft | 338 kts | 302° |
| 2026-04-25 15:53 | 32.99716 | -117.62551 | 16851 ft | 342 kts | 302° |
| 2026-04-25 15:53 | 33.01162 | -117.64811 | 17522 ft | 345 kts | 302° |
| 2026-04-25 15:54 | 33.02620 | -117.67098 | 18177 ft | 349 kts | 301° |
| 2026-04-25 15:54 | 33.04096 | -117.69412 | 18775 ft | 352 kts | 301° |
| 2026-04-25 15:54 | 33.05584 | -117.71738 | 19401 ft | 354 kts | 302° |
| 2026-04-25 15:54 | 33.07295 | -117.73904 | 20027 ft | 365 kts | 311° |
| 2026-04-25 15:55 | 33.09241 | -117.75876 | 20653 ft | 368 kts | 312° |
| 2026-04-25 15:55 | 33.11198 | -117.77857 | 21260 ft | 370 kts | 311° |
| 2026-04-25 15:55 | 33.13165 | -117.79856 | 21858 ft | 373 kts | 311° |
| 2026-04-25 15:55 | 33.15142 | -117.81870 | 22451 ft | 375 kts | 311° |
| 2026-04-25 15:56 | 33.17133 | -117.83901 | 23049 ft | 378 kts | 310° |
| 2026-04-25 15:56 | 33.19140 | -117.85948 | 23637 ft | 380 kts | 310° |
| 2026-04-25 15:56 | 33.21095 | -117.88067 | 24113 ft | 381 kts | 308° |
| 2026-04-25 15:56 | 33.22996 | -117.90285 | 24563 ft | 383 kts | 306° |
| 2026-04-25 15:57 | 33.24841 | -117.92526 | 25013 ft | 385 kts | 305° |
| 2026-04-25 15:57 | 33.26713 | -117.94829 | 25470 ft | 387 kts | 305° |
| 2026-04-25 15:57 | 33.28598 | -117.97140 | 25915 ft | 390 kts | 306° |
| 2026-04-25 15:57 | 33.30511 | -117.99466 | 26352 ft | 393 kts | 306° |
| 2026-04-25 15:58 | 33.32445 | -118.01799 | 26786 ft | 396 kts | 306° |
| 2026-04-25 15:58 | 33.34403 | -118.04146 | 27213 ft | 399 kts | 306° |
| 2026-04-25 15:58 | 33.36374 | -118.06500 | 27640 ft | 402 kts | 306° |
| 2026-04-25 15:58 | 33.38367 | -118.08876 | 28049 ft | 406 kts | 307° |
| 2026-04-25 15:59 | 33.40374 | -118.11270 | 28402 ft | 410 kts | 307° |
| 2026-04-25 15:59 | 33.42400 | -118.13689 | 28794 ft | 413 kts | 307° |
| 2026-04-25 15:59 | 33.44438 | -118.16125 | 29196 ft | 415 kts | 307° |
| 2026-04-25 15:59 | 33.46488 | -118.18580 | 29600 ft | 418 kts | 307° |
| 2026-04-25 16:00 | 33.48543 | -118.21051 | 30002 ft | 420 kts | 307° |
| 2026-04-25 16:00 | 33.49242 | -118.21892 | 30126 ft | 421 kts | 307° |
| 2026-04-25 16:00 | 33.52689 | -118.26045 | 30692 ft | 425 kts | 307° |
| 2026-04-25 16:00 | 33.54777 | -118.28563 | 31032 ft | 427 kts | 307° |
| 2026-04-25 16:01 | 33.56876 | -118.31096 | 31385 ft | 429 kts | 307° |
| 2026-04-25 16:01 | 33.58990 | -118.33649 | 31695 ft | 432 kts | 307° |
| 2026-04-25 16:01 | 33.61076 | -118.36166 | 32150 ft | 431 kts | 307° |
| 2026-04-25 16:01 | 33.63187 | -118.38708 | 32653 ft | 429 kts | 307° |
| 2026-04-25 16:02 | 33.65293 | -118.41243 | 33145 ft | 427 kts | 307° |
| 2026-04-25 16:02 | 33.67386 | -118.43766 | 33642 ft | 426 kts | 307° |
| 2026-04-25 16:02 | 33.69472 | -118.46282 | 34126 ft | 424 kts | 307° |
| 2026-04-25 16:02 | 33.71543 | -118.48787 | 34554 ft | 422 kts | 307° |
| 2026-04-25 16:03 | 33.73603 | -118.51288 | 35058 ft | 420 kts | 306° |
| 2026-04-25 16:03 | 33.75653 | -118.53779 | 35577 ft | 418 kts | 306° |
| 2026-04-25 16:03 | 33.77698 | -118.56267 | 35915 ft | 419 kts | 306° |
| 2026-04-25 16:03 | 33.79740 | -118.58752 | 35994 ft | 415 kts | 306° |
| 2026-04-25 16:04 | 33.83772 | -118.63666 | 35999 ft | 411 kts | 306° |
| 2026-04-25 16:04 | 33.87783 | -118.68562 | 36000 ft | 410 kts | 306° |
| 2026-04-25 16:05 | 33.91793 | -118.73441 | 36016 ft | 410 kts | 307° |
| 2026-04-25 16:06 | 33.97780 | -118.80754 | 36000 ft | 410 kts | 306° |
| 2026-04-25 16:06 | 34.01788 | -118.85659 | 36001 ft | 411 kts | 307° |
| 2026-04-25 16:07 | 34.05796 | -118.90567 | 36009 ft | 411 kts | 307° |
| 2026-04-25 16:07 | 34.09803 | -118.95483 | 36034 ft | 411 kts | 307° |
| 2026-04-25 16:08 | 34.13809 | -119.00415 | 36029 ft | 411 kts | 307° |
| 2026-04-25 16:08 | 34.17849 | -119.05313 | 36028 ft | 412 kts | 308° |
| 2026-04-25 16:09 | 34.21947 | -119.10150 | 36027 ft | 412 kts | 308° |
| 2026-04-25 16:09 | 34.26042 | -119.14995 | 36024 ft | 412 kts | 308° |
| 2026-04-25 16:10 | 34.30118 | -119.19860 | 36033 ft | 411 kts | 308° |
| 2026-04-25 16:10 | 34.34156 | -119.24700 | 36023 ft | 412 kts | 308° |
| 2026-04-25 16:11 | 34.38223 | -119.29577 | 36015 ft | 411 kts | 308° |
| 2026-04-25 16:11 | 34.42291 | -119.34453 | 36003 ft | 411 kts | 308° |
| 2026-04-25 16:12 | 34.46354 | -119.39333 | 35985 ft | 412 kts | 308° |
| 2026-04-25 16:12 | 34.50414 | -119.44229 | 35978 ft | 411 kts | 308° |
| 2026-04-25 16:13 | 34.54472 | -119.49122 | 35977 ft | 412 kts | 308° |
| 2026-04-25 16:13 | 34.58538 | -119.54023 | 35966 ft | 412 kts | 308° |
| 2026-04-25 16:14 | 34.62595 | -119.58926 | 35963 ft | 411 kts | 307° |
| 2026-04-25 16:14 | 34.66653 | -119.63840 | 35966 ft | 412 kts | 307° |
| 2026-04-25 16:15 | 34.70712 | -119.68763 | 35965 ft | 412 kts | 307° |
| 2026-04-25 16:15 | 34.74768 | -119.73691 | 35980 ft | 412 kts | 308° |
| 2026-04-25 16:16 | 34.78827 | -119.78619 | 36000 ft | 413 kts | 307° |
| 2026-04-25 16:16 | 34.82869 | -119.83536 | 36005 ft | 413 kts | 307° |
| 2026-04-25 16:17 | 34.86931 | -119.88484 | 36000 ft | 413 kts | 307° |
| 2026-04-25 16:17 | 34.90990 | -119.93450 | 35992 ft | 414 kts | 307° |
| 2026-04-25 16:18 | 34.95055 | -119.98426 | 36026 ft | 414 kts | 307° |
| 2026-04-25 16:18 | 34.99126 | -120.03410 | 36015 ft | 415 kts | 307° |
| 2026-04-25 16:19 | 35.03202 | -120.08394 | 36014 ft | 414 kts | 307° |
| 2026-04-25 16:19 | 35.07269 | -120.13389 | 36024 ft | 415 kts | 307° |
| 2026-04-25 16:20 | 35.13361 | -120.20914 | 36039 ft | 416 kts | 307° |
| 2026-04-25 16:21 | 35.19837 | -120.28073 | 36026 ft | 424 kts | 315° |
| 2026-04-25 16:21 | 35.24550 | -120.32363 | 36028 ft | 425 kts | 315° |
| 2026-04-25 16:22 | 35.29278 | -120.36688 | 36043 ft | 425 kts | 315° |
| 2026-04-25 16:22 | 35.34018 | -120.41029 | 36046 ft | 425 kts | 315° |
| 2026-04-25 16:23 | 35.38753 | -120.45376 | 36028 ft | 426 kts | 315° |
| 2026-04-25 16:23 | 35.43496 | -120.49727 | 36019 ft | 426 kts | 315° |
| 2026-04-25 16:23 | 35.45877 | -120.51917 | 35844 ft | 428 kts | 315° |
| 2026-04-25 16:24 | 35.48257 | -120.54110 | 35598 ft | 427 kts | 315° |
| 2026-04-25 16:24 | 35.50625 | -120.56295 | 35349 ft | 425 kts | 315° |
| 2026-04-25 16:24 | 35.52989 | -120.58461 | 35113 ft | 424 kts | 317° |
| 2026-04-25 16:24 | 35.55409 | -120.60524 | 34874 ft | 424 kts | 319° |
| 2026-04-25 16:25 | 35.57885 | -120.62486 | 34643 ft | 423 kts | 321° |
| 2026-04-25 16:25 | 35.62859 | -120.66242 | 33765 ft | 417 kts | 321° |
| 2026-04-25 16:25 | 35.65322 | -120.68105 | 33308 ft | 414 kts | 321° |
| 2026-04-25 16:26 | 35.67752 | -120.69974 | 32867 ft | 410 kts | 321° |
| 2026-04-25 16:26 | 35.70153 | -120.71846 | 32420 ft | 407 kts | 321° |
| 2026-04-25 16:26 | 35.72527 | -120.73715 | 31990 ft | 404 kts | 321° |
| 2026-04-25 16:26 | 35.74884 | -120.75580 | 31552 ft | 402 kts | 321° |
| 2026-04-25 16:27 | 35.77229 | -120.77437 | 31137 ft | 400 kts | 321° |
| 2026-04-25 16:27 | 35.79564 | -120.79284 | 30729 ft | 398 kts | 321° |
| 2026-04-25 16:27 | 35.81859 | -120.81099 | 30331 ft | 397 kts | 322° |
| 2026-04-25 16:27 | 35.84188 | -120.82943 | 29896 ft | 397 kts | 322° |
| 2026-04-25 16:28 | 35.86506 | -120.84781 | 29478 ft | 394 kts | 322° |
| 2026-04-25 16:28 | 35.88806 | -120.86603 | 29090 ft | 392 kts | 322° |
| 2026-04-25 16:28 | 35.91097 | -120.88415 | 28715 ft | 390 kts | 322° |
| 2026-04-25 16:28 | 35.93379 | -120.90214 | 28343 ft | 388 kts | 322° |
| 2026-04-25 16:29 | 35.95649 | -120.92005 | 27956 ft | 386 kts | 322° |
| 2026-04-25 16:29 | 35.97901 | -120.93786 | 27581 ft | 383 kts | 322° |
| 2026-04-25 16:29 | 35.99383 | -120.94959 | 27341 ft | 382 kts | 322° |
| 2026-04-25 16:29 | 36.01595 | -120.96750 | 26964 ft | 379 kts | 320° |
| 2026-04-25 16:30 | 36.03720 | -120.98644 | 26573 ft | 375 kts | 317° |
| 2026-04-25 16:30 | 36.05775 | -121.00603 | 26193 ft | 372 kts | 316° |
| 2026-04-25 16:30 | 36.07793 | -121.02584 | 25802 ft | 369 kts | 316° |
| 2026-04-25 16:30 | 36.09798 | -121.04558 | 25405 ft | 367 kts | 316° |
| 2026-04-25 16:31 | 36.11797 | -121.06513 | 25002 ft | 366 kts | 316° |
| 2026-04-25 16:31 | 36.13801 | -121.08453 | 24604 ft | 365 kts | 316° |
| 2026-04-25 16:31 | 36.15803 | -121.10372 | 24201 ft | 364 kts | 316° |
| 2026-04-25 16:31 | 36.17806 | -121.12284 | 23784 ft | 363 kts | 316° |
| 2026-04-25 16:32 | 36.19801 | -121.14188 | 23336 ft | 362 kts | 316° |
| 2026-04-25 16:32 | 36.21793 | -121.16084 | 22910 ft | 359 kts | 317° |
| 2026-04-25 16:32 | 36.23770 | -121.17962 | 22499 ft | 357 kts | 317° |
| 2026-04-25 16:32 | 36.25728 | -121.19830 | 22093 ft | 354 kts | 317° |
| 2026-04-25 16:33 | 36.27671 | -121.21688 | 21684 ft | 352 kts | 317° |
| 2026-04-25 16:33 | 36.29602 | -121.23537 | 21267 ft | 350 kts | 317° |
| 2026-04-25 16:33 | 36.31522 | -121.25382 | 20872 ft | 348 kts | 317° |
| 2026-04-25 16:33 | 36.33432 | -121.27217 | 20459 ft | 347 kts | 317° |
| 2026-04-25 16:34 | 36.35338 | -121.29049 | 20050 ft | 346 kts | 318° |
| 2026-04-25 16:34 | 36.37240 | -121.30873 | 19648 ft | 345 kts | 318° |
| 2026-04-25 16:34 | 36.39139 | -121.32699 | 19234 ft | 344 kts | 318° |
| 2026-04-25 16:34 | 36.41026 | -121.34518 | 18832 ft | 343 kts | 318° |
| 2026-04-25 16:35 | 36.42909 | -121.36333 | 18423 ft | 342 kts | 318° |
| 2026-04-25 16:35 | 36.44760 | -121.38123 | 17979 ft | 341 kts | 319° |
| 2026-04-25 16:35 | 36.46628 | -121.39928 | 17584 ft | 338 kts | 319° |
| 2026-04-25 16:35 | 36.48484 | -121.41707 | 17201 ft | 336 kts | 322° |
| 2026-04-25 16:36 | 36.50485 | -121.43194 | 16791 ft | 335 kts | 333° |
| 2026-04-25 16:36 | 36.51204 | -121.43593 | 16652 ft | 335 kts | 337° |
| 2026-04-25 16:36 | 36.54849 | -121.45158 | 15991 ft | 332 kts | 340° |
| 2026-04-25 16:36 | 36.57030 | -121.46077 | 15578 ft | 330 kts | 340° |
| 2026-04-25 16:37 | 36.59202 | -121.46994 | 15187 ft | 328 kts | 340° |
| 2026-04-25 16:37 | 36.61361 | -121.47903 | 14793 ft | 327 kts | 340° |
| 2026-04-25 16:37 | 36.63511 | -121.48808 | 14401 ft | 325 kts | 340° |
| 2026-04-25 16:37 | 36.65646 | -121.49712 | 14011 ft | 324 kts | 340° |
| 2026-04-25 16:38 | 36.67771 | -121.50612 | 13602 ft | 322 kts | 341° |
| 2026-04-25 16:38 | 36.69883 | -121.51508 | 13197 ft | 319 kts | 341° |
| 2026-04-25 16:38 | 36.71970 | -121.52389 | 12812 ft | 312 kts | 341° |
| 2026-04-25 16:38 | 36.73976 | -121.53236 | 12452 ft | 299 kts | 341° |
| 2026-04-25 16:39 | 36.75943 | -121.54071 | 12091 ft | 298 kts | 340° |
| 2026-04-25 16:39 | 36.77902 | -121.54903 | 11730 ft | 297 kts | 340° |
| 2026-04-25 16:39 | 36.79855 | -121.55736 | 11369 ft | 296 kts | 340° |
| 2026-04-25 16:39 | 36.81800 | -121.56569 | 11008 ft | 296 kts | 340° |
| 2026-04-25 16:40 | 36.83744 | -121.57399 | 10650 ft | 295 kts | 340° |
| 2026-04-25 16:40 | 36.85688 | -121.58229 | 10290 ft | 295 kts | 340° |
| 2026-04-25 16:40 | 36.87632 | -121.59058 | 9926 ft | 295 kts | 340° |
| 2026-04-25 16:40 | 36.89573 | -121.59886 | 9539 ft | 295 kts | 340° |
| 2026-04-25 16:41 | 36.91516 | -121.60714 | 9184 ft | 294 kts | 340° |
| 2026-04-25 16:41 | 36.93420 | -121.61525 | 8822 ft | 293 kts | 340° |
| 2026-04-25 16:41 | 36.97267 | -121.63152 | 8107 ft | 291 kts | 340° |
| 2026-04-25 16:42 | 36.99186 | -121.63964 | 7735 ft | 289 kts | 340° |
| 2026-04-25 16:42 | 37.01066 | -121.64763 | 7380 ft | 280 kts | 340° |
| 2026-04-25 16:42 | 37.02870 | -121.65532 | 7046 ft | 268 kts | 340° |
| 2026-04-25 16:42 | 37.04617 | -121.66275 | 6713 ft | 263 kts | 340° |
| 2026-04-25 16:43 | 37.06351 | -121.67013 | 6391 ft | 265 kts | 340° |
| 2026-04-25 16:43 | 37.08101 | -121.67756 | 6031 ft | 265 kts | 340° |
| 2026-04-25 16:43 | 37.09850 | -121.68500 | 5694 ft | 265 kts | 340° |
| 2026-04-25 16:43 | 37.11575 | -121.69235 | 5521 ft | 258 kts | 340° |
| 2026-04-25 16:44 | 37.13245 | -121.69946 | 5390 ft | 249 kts | 340° |
| 2026-04-25 16:44 | 37.14870 | -121.70639 | 5267 ft | 245 kts | 340° |
| 2026-04-25 16:44 | 37.16420 | -121.71480 | 5110 ft | 243 kts | 327° |
| 2026-04-25 16:44 | 37.17769 | -121.72746 | 4774 ft | 241 kts | 317° |
| 2026-04-25 16:45 | 37.19029 | -121.74136 | 4434 ft | 240 kts | 316° |
| 2026-04-25 16:45 | 37.20259 | -121.75492 | 4112 ft | 231 kts | 317° |
| 2026-04-25 16:45 | 37.21446 | -121.76787 | 3811 ft | 221 kts | 317° |
| 2026-04-25 16:45 | 37.22591 | -121.78036 | 3506 ft | 217 kts | 317° |
| 2026-04-25 16:46 | 37.23711 | -121.79257 | 3186 ft | 208 kts | 317° |
| 2026-04-25 16:46 | 37.24780 | -121.80423 | 2936 ft | 204 kts | 317° |
| 2026-04-25 16:46 | 37.25844 | -121.81584 | 2666 ft | 202 kts | 317° |
| 2026-04-25 16:46 | 37.26554 | -121.82360 | 2471 ft | 198 kts | 317° |
| 2026-04-25 16:47 | 37.27917 | -121.83849 | 2146 ft | 194 kts | 317° |
| 2026-04-25 16:47 | 37.28923 | -121.84948 | 1855 ft | 187 kts | 317° |
| 2026-04-25 16:47 | 37.29870 | -121.85982 | 1601 ft | 173 kts | 317° |
| 2026-04-25 16:47 | 37.30731 | -121.86923 | 1396 ft | 154 kts | 317° |
| 2026-04-25 16:48 | 37.31507 | -121.87772 | 1175 ft | 144 kts | 317° |
| 2026-04-25 16:48 | 37.32252 | -121.88587 | 991 ft | 140 kts | 316° |
| 2026-04-25 16:48 | 37.32983 | -121.89388 | 798 ft | 138 kts | 317° |
| 2026-04-25 16:48 | 37.33706 | -121.90179 | 619 ft | 137 kts | 317° |
| 2026-04-25 16:49 | 37.34424 | -121.90966 | 416 ft | 137 kts | 317° |
| 2026-04-25 16:49 | 37.35140 | -121.91751 | 249 ft | 136 kts | 316° |
| 2026-04-25 16:49 | 37.35854 | -121.92538 | 95 ft | 136 kts | 317° |
| 2026-04-25 16:49 | 37.36515 | -121.93267 | 59 ft | 106 kts | 318° |
| 2026-04-25 16:50 | 37.36881 | -121.93656 | 59 ft | 36 kts | 323° |
| 2026-04-25 16:50 | 37.37022 | -121.93809 | 57 ft | 20 kts | 328° |
| 2026-04-25 16:50 | 37.37159 | -121.93793 | 63 ft | 22 kts | 34° |
| 2026-04-25 16:50 | 37.37243 | -121.93678 | 63 ft | 13 kts | 50° |
| 2026-04-25 16:51 | 37.37300 | -121.93566 | 62 ft | 16 kts | 97° |
| 2026-04-25 16:51 | 37.37217 | -121.93452 | 56 ft | 20 kts | 143° |
| 2026-04-25 16:51 | 37.37123 | -121.93348 | 58 ft | 18 kts | 139° |
| 2026-04-25 16:51 | 37.37057 | -121.93277 | 56 ft | 19 kts | 139° |
| 2026-04-25 16:52 | 37.36942 | -121.93151 | 56 ft | 13 kts | 140° |
| 2026-04-25 16:52 | 37.36919 | -121.93075 | 57 ft | 10 kts | 52° |
| 2026-04-25 16:52 | 37.36941 | -121.93043 | 61 ft | 0 kts | 48° |